Nearby METAR Reports


NZWN - Wellington Intl, New Zealand
Distance from station: SSW 357km
Updated: 22/08/2018 00:00
Nearby showers, Mostly cloudy
Nearby showers, Mostly cloudy
 Wind from NNW
Wind: NNW 15 km/h
Temperature: 11°C
Dew Point: 8°C
Humidity: 82%
Barometer: 989 hPa
Summary: Nearby Showers
Clouds: Mostly Cloudy
Visibility: 10 km
Cloud details: Few Clouds 762 m
Partly Cloudy 1006 m
Mostly Cloudy 1433 m
2018/08/21 12:00 NZWN 211200Z AUTO 34008KT 9999 VCSH FEW025/// SCT033/// BKN047/// 11/08 Q0989 NOSIG
NZAA - Auckland Intl Ar, New Zealand
Distance from station: NW 162km
Updated: 22/08/2018 00:00
Light rain, Mostly cloudy
Light rain, Mostly cloudy
 Wind from WSW
Wind: WSW 37 km/h
Temperature: 10°C
Wind Chill: 6°C
Dew Point: 7°C
Humidity: 82%
Barometer: 999 hPa
Summary: Light Rain
Clouds: Mostly Cloudy
Visibility: 10 km
Cloud details: Partly Cloudy 853 m
Mostly Cloudy 1097 m
Mostly Cloudy 1463 m
2018/08/21 12:00 NZAA 211200Z AUTO 25020KT 9999 -RA SCT028/// BKN036/// BKN048/// 10/07 Q0999 NOSIG
 
NZCH - Christchurch Int, New Zealand
Distance from station: SSW 647km
Updated: 22/08/2018 00:00
Fog, Clear
Fog, Clear
 Wind from ENE
Wind: ENE 7 km/h
Temperature: 5°C
Wind Chill: 3°C
Dew Point: 4°C
Humidity: 93%
Barometer: 988 hPa
Summary: Fog
Clouds: Clear
Visibility: 1 km
2018/08/21 12:00 NZCH 211200Z AUTO 06004KT 0600 R02/P2000N R20/P2000N FG NCD 05/04 Q0988 NOSIG
YSNF - Norfolk Island A, Australia
Distance from station: NW 1258km
Updated: 22/08/2018 00:00
Partly Cloudy
Partly Cloudy
 Wind from W
Wind: W 20 km/h
Temperature: 15°C
Dew Point: 9°C
Humidity: 68%
Barometer: 1014 hPa
Clouds: Partly Cloudy
Visibility: 10 km
Cloud details: Partly Cloudy 1067 m
2018/08/21 12:00 YSNF 211200Z AUTO 28011KT 9999 // SCT035 15/09 Q1014